createdAt,value
2023-10-25T00:00:33.889Z,98853.22
2023-10-25T00:03:00.910Z,98855.06
2023-10-25T00:05:34.316Z,98842.44
2023-10-25T00:08:01.162Z,98844.56
2023-10-25T00:10:28.537Z,98842.25
2023-10-25T00:12:55.417Z,98848.59
2023-10-25T00:15:23.207Z,98850.25
2023-10-25T00:17:50.309Z,98851.25
2023-10-25T00:20:17.174Z,98840.94
2023-10-25T00:22:43.928Z,98845.09
2023-10-25T00:25:10.912Z,98850.59
2023-10-25T00:27:37.738Z,98855.25
2023-10-25T00:30:05.263Z,98847.25
2023-10-25T00:32:32.538Z,98847.25
2023-10-25T00:34:59.503Z,98857.91
2023-10-25T00:37:26.322Z,98860.56
2023-10-25T00:39:53.212Z,98851.91
2023-10-25T00:42:20.898Z,98859.06
2023-10-25T00:44:47.863Z,98859.75
2023-10-25T00:47:14.744Z,98849.44
2023-10-25T00:49:41.748Z,98847.25
2023-10-25T00:52:08.873Z,98846.44
2023-10-25T00:54:37.123Z,98837.44
2023-10-25T00:57:04.325Z,98845.41
2023-10-25T00:59:31.727Z,98852.44
2023-10-25T01:01:59.778Z,98850.75
2023-10-25T01:04:26.648Z,98850.75
2023-10-25T01:06:54.574Z,98853.41
2023-10-25T01:09:21.551Z,98854.25
2023-10-25T01:11:48.326Z,98858.72
2023-10-25T01:14:15.087Z,98853.41
2023-10-25T01:16:41.915Z,98847.09
2023-10-25T01:19:10.166Z,98855.25
2023-10-25T01:21:37.028Z,98849.91
2023-10-25T01:24:04.096Z,98844.59
2023-10-25T01:26:32.409Z,98840.28
2023-10-25T01:28:59.435Z,98851.75
2023-10-25T01:31:26.644Z,98848.09
2023-10-25T01:33:53.506Z,98854.06
2023-10-25T01:36:20.271Z,98862.25
2023-10-25T01:38:47.093Z,98852.59
2023-10-25T01:41:17.359Z,98846.44
2023-10-25T01:43:44.607Z,98850.75
2023-10-25T01:46:11.552Z,98857.91
2023-10-25T01:48:39.026Z,98855.25
2023-10-25T01:51:09.836Z,98848.09
2023-10-25T01:53:37.074Z,98844.44
2023-10-25T01:56:03.975Z,98837.63
2023-10-25T01:58:30.992Z,98833.94
2023-10-25T02:00:58.034Z,98831.47
2023-10-25T02:03:25.340Z,98834.78
2023-10-25T02:05:52.194Z,98835.94
2023-10-25T02:08:19.156Z,98835.94
2023-10-25T02:10:45.931Z,98842.94
2023-10-25T02:13:12.731Z,98834.13
2023-10-25T02:15:39.675Z,98839.28
2023-10-25T02:18:06.720Z,98837.63
2023-10-25T02:20:33.604Z,98845.41
2023-10-25T02:23:00.400Z,98832.13
2023-10-25T02:25:27.286Z,98831.97
2023-10-25T02:27:54.142Z,98829.28
2023-10-25T02:30:21.334Z,98821.47
2023-10-25T02:32:49.022Z,98838.09
2023-10-25T02:35:17.158Z,98824.97
2023-10-25T02:37:44.230Z,98826.78
2023-10-25T02:40:11.490Z,98827.66
2023-10-25T02:42:40.178Z,98832.13
2023-10-25T02:45:07.509Z,98825.81
2023-10-25T02:47:34.294Z,98823.16
2023-10-25T02:50:01.145Z,98819.81
2023-10-25T02:52:28.985Z,98813.47
2023-10-25T02:54:56.681Z,98803.69
2023-10-25T02:57:23.568Z,98805.50
2023-10-25T02:59:52.748Z,98804.66
2023-10-25T03:02:20.312Z,98802.00
2023-10-25T03:04:47.196Z,98802.84
2023-10-25T03:07:14.025Z,98787.88
2023-10-25T03:09:41.137Z,98779.06
2023-10-25T03:12:08.401Z,98782.72
2023-10-25T03:14:35.465Z,98784.41
2023-10-25T03:17:02.389Z,98786.38
2023-10-25T03:19:30.648Z,98782.72
2023-10-25T03:21:58.298Z,98785.56
2023-10-25T03:24:27.518Z,98788.03
2023-10-25T03:26:54.377Z,98784.56
2023-10-25T03:29:21.327Z,98790.69
2023-10-25T03:31:48.945Z,98784.56
2023-10-25T03:34:16.254Z,98784.41
2023-10-25T03:36:43.553Z,98788.22
2023-10-25T03:39:11.609Z,98783.56
2023-10-25T03:41:38.505Z,98774.72
2023-10-25T03:44:05.553Z,98773.91
2023-10-25T03:46:32.541Z,98768.59
2023-10-25T03:48:59.442Z,98766.94
2023-10-25T03:51:26.662Z,98766.09
2023-10-25T03:53:53.470Z,98759.78
2023-10-25T03:56:20.250Z,98756.44
2023-10-25T03:58:46.963Z,98749.28
2023-10-25T04:01:14.754Z,98748.47
2023-10-25T04:03:42.671Z,98746.81
2023-10-25T04:06:10.363Z,98738.84
2023-10-25T04:08:37.373Z,98728.50
2023-10-25T04:11:04.282Z,98725.69
2023-10-25T04:13:31.383Z,98734.50
2023-10-25T04:16:02.999Z,98716.88
2023-10-25T04:18:31.409Z,98724.03
2023-10-25T04:20:59.263Z,98718.72
2023-10-25T04:23:27.128Z,98713.41
2023-10-25T04:25:53.876Z,98715.41
2023-10-25T04:28:20.835Z,98712.91
2023-10-25T04:30:47.959Z,98709.25
2023-10-25T04:33:15.321Z,98716.22
2023-10-25T04:35:42.697Z,98714.22
2023-10-25T04:38:10.031Z,98713.41
2023-10-25T04:40:36.898Z,98710.91
2023-10-25T04:43:03.774Z,98706.41
2023-10-25T04:45:30.567Z,98709.88
2023-10-25T04:47:57.415Z,98711.56
2023-10-25T04:50:24.904Z,98700.25
2023-10-25T04:52:51.749Z,98705.41
2023-10-25T04:55:18.962Z,98702.75
2023-10-25T04:57:45.798Z,98699.06
2023-10-25T05:00:13.362Z,98694.56
2023-10-25T05:02:40.394Z,98698.25
2023-10-25T05:05:08.562Z,98688.44
2023-10-25T05:07:36.524Z,98689.25
2023-10-25T05:10:05.280Z,98685.09
2023-10-25T05:12:42.834Z,98680.59
2023-10-25T05:15:10.804Z,98678.16
2023-10-25T05:17:38.872Z,98671.81
2023-10-25T05:20:07.560Z,98670.31
2023-10-25T05:22:36.058Z,98672.97
2023-10-25T05:25:07.859Z,98668.69
2023-10-25T05:27:35.567Z,98669.50
2023-10-25T05:30:06.388Z,98662.34
2023-10-25T05:32:35.097Z,98662.34
2023-10-25T05:35:03.261Z,98662.19
2023-10-25T05:37:30.937Z,98666.69
2023-10-25T05:39:58.419Z,98668.31
2023-10-25T05:42:25.672Z,98658.69
2023-10-25T05:44:55.115Z,98657.00
2023-10-25T05:47:26.300Z,98643.06
2023-10-25T05:49:53.429Z,98650.88
2023-10-25T05:52:22.183Z,98645.72
2023-10-25T05:54:49.258Z,98638.59
2023-10-25T05:57:16.232Z,98648.38
2023-10-25T05:59:43.239Z,98642.22
2023-10-25T06:02:11.519Z,98637.94
2023-10-25T06:04:39.729Z,98631.94
2023-10-25T06:07:08.831Z,98632.75
2023-10-25T06:09:35.869Z,98633.59
2023-10-25T06:12:04.025Z,98635.44
2023-10-25T06:14:31.686Z,98630.09
2023-10-25T06:16:59.325Z,98639.91
2023-10-25T06:19:26.958Z,98631.28
2023-10-25T06:21:54.889Z,98641.75
2023-10-25T06:24:21.934Z,98631.13
2023-10-25T06:26:48.925Z,98626.78
2023-10-25T06:29:15.739Z,98616.34
2023-10-25T06:31:42.696Z,98624.97
2023-10-25T06:34:12.295Z,98632.75
2023-10-25T06:36:39.729Z,98628.25
2023-10-25T06:39:10.150Z,98622.31
2023-10-25T06:41:37.992Z,98624.31
2023-10-25T06:44:06.365Z,98621.13
2023-10-25T06:46:33.884Z,98617.47
2023-10-25T06:49:00.880Z,98611.97
2023-10-25T06:51:27.922Z,98606.28
2023-10-25T06:53:54.945Z,98605.94
2023-10-25T06:56:22.180Z,98606.94
2023-10-25T06:58:53.082Z,98597.94
2023-10-25T07:01:21.925Z,98601.06
2023-10-25T07:03:50.194Z,98596.25
2023-10-25T07:06:18.192Z,98588.25
2023-10-25T07:08:45.871Z,98584.41
2023-10-25T07:11:12.696Z,98579.91
2023-10-25T07:13:40.067Z,98575.63
2023-10-25T07:16:08.367Z,98570.44
2023-10-25T07:18:38.506Z,98563.66
2023-10-25T07:21:06.959Z,98562.19
2023-10-25T07:23:33.799Z,98553.16
2023-10-25T07:26:00.527Z,98542.72
2023-10-25T07:28:27.716Z,98546.19
2023-10-25T07:30:54.705Z,98550.50
2023-10-25T07:33:22.434Z,98544.38
2023-10-25T07:35:49.710Z,98540.88
2023-10-25T07:38:17.049Z,98537.19
2023-10-25T07:40:44.074Z,98538.06
2023-10-25T07:43:11.143Z,98532.38
2023-10-25T07:45:38.069Z,98529.72
2023-10-25T07:48:05.339Z,98526.88
2023-10-25T07:50:32.596Z,98529.19
2023-10-25T07:52:59.539Z,98530.81
2023-10-25T08:00:25.597Z,98519.19
2023-10-25T08:02:52.438Z,98521.84
2023-10-25T08:05:19.322Z,98509.38
2023-10-25T08:07:48.759Z,98511.00
2023-10-25T08:10:15.973Z,98508.19
2023-10-25T08:12:42.864Z,98516.97
2023-10-25T08:15:09.972Z,98501.66
2023-10-25T08:17:36.905Z,98502.94
2023-10-25T08:20:06.111Z,98499.94
2023-10-25T08:22:35.090Z,98499.56
2023-10-25T08:25:02.182Z,98495.72
2023-10-25T08:27:28.976Z,98494.53
2023-10-25T08:29:57.377Z,98496.81
2023-10-25T08:32:24.613Z,98485.00
2023-10-25T08:34:51.593Z,98488.31
2023-10-25T08:37:19.060Z,98485.63
2023-10-25T08:39:45.778Z,98492.59
2023-10-25T08:42:15.820Z,98479.28
2023-10-25T08:44:44.197Z,98475.44
2023-10-25T08:47:14.133Z,98470.13
2023-10-25T08:49:41.001Z,98460.28
2023-10-25T08:52:08.454Z,98462.13
2023-10-25T08:54:37.138Z,98464.41
2023-10-25T08:57:05.876Z,98451.09
2023-10-25T08:59:41.793Z,98443.31
2023-10-25T09:02:10.245Z,98448.91
2023-10-25T09:04:37.088Z,98444.25
2023-10-25T09:07:27.364Z,98437.06
2023-10-25T09:09:54.062Z,98438.53
2023-10-25T09:12:24.523Z,98438.16
2023-10-25T09:14:52.546Z,98420.34
2023-10-25T09:17:19.803Z,98417.50
2023-10-25T09:19:48.290Z,98403.97
2023-10-25T09:22:31.233Z,98412.34
2023-10-25T09:25:00.135Z,98411.16
2023-10-25T09:27:27.212Z,98410.31
2023-10-25T09:29:54.646Z,98405.81
2023-10-25T09:32:22.755Z,98407.66
2023-10-25T09:34:50.002Z,98409.50
2023-10-25T09:37:16.936Z,98409.69
2023-10-25T09:39:44.003Z,98406.19
2023-10-25T09:42:11.725Z,98401.91
2023-10-25T09:44:46.785Z,98406.75
2023-10-25T09:47:16.875Z,98408.41
2023-10-25T09:49:45.130Z,98406.75
2023-10-25T09:52:14.438Z,98411.44
2023-10-25T09:54:48.605Z,98403.00
2023-10-25T09:57:15.996Z,98393.97
2023-10-25T09:59:43.486Z,98393.81
2023-10-25T10:02:13.827Z,98382.34
2023-10-25T10:04:46.413Z,98374.50
2023-10-25T10:07:31.832Z,98378.00
2023-10-25T10:10:20.740Z,98373.88
2023-10-25T10:12:47.960Z,98373.69
2023-10-25T10:15:15.664Z,98365.53
2023-10-25T10:17:44.368Z,98369.66
2023-10-25T10:20:25.614Z,98357.72
2023-10-25T10:23:05.713Z,98353.84
2023-10-25T10:25:51.544Z,98350.38
2023-10-25T10:28:43.693Z,98340.53
2023-10-25T10:31:11.942Z,98342.66
2023-10-25T10:33:45.912Z,98327.03
2023-10-25T10:36:23.950Z,98326.41
2023-10-25T10:39:17.623Z,98316.75
2023-10-25T10:41:45.638Z,98315.38
2023-10-25T10:44:12.654Z,98315.38
2023-10-25T10:46:49.887Z,98318.41
2023-10-25T10:49:19.939Z,98301.41
2023-10-25T10:51:48.244Z,98298.75
2023-10-25T10:54:17.041Z,98317.38
2023-10-25T10:56:44.823Z,98301.41
2023-10-25T10:59:11.646Z,98290.75
2023-10-25T11:01:38.453Z,98272.31
2023-10-25T11:04:07.079Z,98264.13
2023-10-25T11:06:33.891Z,98237.31
2023-10-25T11:09:00.918Z,98229.97
2023-10-25T11:11:27.679Z,98235.28
2023-10-25T11:13:54.541Z,98226.44
2023-10-25T11:16:21.258Z,98227.09
2023-10-25T11:18:48.037Z,98220.94
2023-10-25T11:21:15.650Z,98220.94
2023-10-25T11:23:43.471Z,98204.16
2023-10-25T11:26:10.289Z,98195.13
2023-10-25T11:28:40.074Z,98193.28
2023-10-25T11:31:06.891Z,98187.13
2023-10-25T11:33:45.232Z,98170.53
2023-10-25T11:36:12.884Z,98169.13
2023-10-25T11:38:44.651Z,98163.00
2023-10-25T11:41:12.185Z,98157.47
2023-10-25T11:43:39.819Z,98156.63
2023-10-25T11:46:06.583Z,98156.47
2023-10-25T11:48:34.892Z,98147.66
2023-10-25T11:51:02.651Z,98143.97
2023-10-25T11:53:29.609Z,98142.94
2023-10-25T11:56:00.051Z,98126.13
2023-10-25T11:58:30.057Z,98125.31
2023-10-25T12:00:56.786Z,98121.63
2023-10-25T12:03:23.648Z,98115.31
2023-10-25T12:05:50.597Z,98104.44
2023-10-25T12:08:17.350Z,98104.25
2023-10-25T12:10:44.099Z,98097.06
2023-10-25T12:13:10.945Z,98090.13
2023-10-25T12:15:37.750Z,98091.75
2023-10-25T12:18:04.795Z,98084.78
2023-10-25T12:20:34.044Z,98080.28
2023-10-25T12:23:00.833Z,98078.44
2023-10-25T12:25:28.125Z,98067.78
2023-10-25T12:27:54.882Z,98063.25
2023-10-25T12:30:21.709Z,98064.28
2023-10-25T12:32:48.534Z,98060.59
2023-10-25T12:35:15.510Z,98054.47
2023-10-25T12:37:42.227Z,98049.13
2023-10-25T12:40:09.615Z,98038.47
2023-10-25T12:42:36.398Z,98034.81
2023-10-25T12:45:03.276Z,98036.25
2023-10-25T12:47:30.762Z,98033.59
2023-10-25T12:49:57.547Z,98023.75
2023-10-25T12:52:24.263Z,98025.22
2023-10-25T12:54:51.012Z,98020.69
2023-10-25T12:57:17.900Z,98027.47
2023-10-25T12:59:44.719Z,98021.56
2023-10-25T13:02:11.511Z,98010.69
2023-10-25T13:04:38.199Z,98009.69
2023-10-25T13:07:05.068Z,98005.38
2023-10-25T13:09:31.770Z,98005.38
2023-10-25T13:11:58.503Z,98001.88
2023-10-25T13:14:25.317Z,98001.25
2023-10-25T13:16:54.357Z,97988.78
2023-10-25T13:19:25.062Z,97991.63
2023-10-25T13:21:52.240Z,97987.50
2023-10-25T13:24:18.965Z,97986.47
2023-10-25T13:26:45.653Z,97990.38
2023-10-25T13:29:13.244Z,97982.38
2023-10-25T13:31:40.025Z,97992.22
2023-10-25T13:34:07.201Z,97999.56
2023-10-25T13:36:33.971Z,97993.25
2023-10-25T13:39:00.742Z,97988.09
2023-10-25T13:41:27.690Z,97986.25
2023-10-25T13:43:54.503Z,97987.09
2023-10-25T13:46:21.246Z,97966.38
2023-10-25T13:48:48.137Z,97958.41
2023-10-25T13:51:15.008Z,97958.03
2023-10-25T13:53:41.718Z,97957.00
2023-10-25T13:56:13.400Z,97960.28
2023-10-25T13:58:41.030Z,97953.13
2023-10-25T14:01:07.985Z,97943.50
2023-10-25T14:03:34.918Z,97943.28
2023-10-25T14:06:05.951Z,97938.75
2023-10-25T14:08:33.463Z,97933.44
2023-10-25T14:11:00.428Z,97931.41
2023-10-25T14:13:39.142Z,97918.88
2023-10-25T14:16:08.081Z,97913.38
2023-10-25T14:18:35.083Z,97919.53
2023-10-25T14:21:01.950Z,97904.34
2023-10-25T14:23:28.901Z,97901.50
2023-10-25T14:25:55.904Z,97905.81
2023-10-25T14:28:23.280Z,97895.16
2023-10-25T14:30:50.203Z,97898.66
2023-10-25T14:33:17.227Z,97892.50
2023-10-25T14:35:44.279Z,97906.81
2023-10-25T14:38:11.126Z,97903.16
2023-10-25T14:40:41.922Z,97906.81
2023-10-25T14:43:09.034Z,97888.16
2023-10-25T14:45:35.949Z,97882.22
2023-10-25T14:48:03.905Z,97876.69
2023-10-25T14:50:37.799Z,97880.59
2023-10-25T14:53:05.153Z,97866.84
2023-10-25T14:55:36.272Z,97869.72
2023-10-25T14:58:03.125Z,97860.91
2023-10-25T15:00:30.001Z,97866.03
2023-10-25T15:02:56.997Z,97861.53
2023-10-25T15:05:25.957Z,97850.25
2023-10-25T15:07:54.400Z,97846.56
2023-10-25T15:10:21.713Z,97853.53
2023-10-25T15:12:48.684Z,97849.25
2023-10-25T15:15:15.695Z,97849.44
2023-10-25T15:17:46.536Z,97850.25
2023-10-25T15:20:14.707Z,97848.63
2023-10-25T15:22:41.803Z,97840.63
2023-10-25T15:25:09.129Z,97839.81
2023-10-25T15:27:35.919Z,97839.59
2023-10-25T15:30:03.090Z,97838.78
2023-10-25T15:32:29.874Z,97830.78
2023-10-25T15:34:56.739Z,97836.91
2023-10-25T15:37:23.704Z,97840.41
2023-10-25T15:40:08.809Z,97843.31
2023-10-25T15:42:40.344Z,97846.97
2023-10-25T15:45:11.517Z,97827.50
2023-10-25T15:47:38.400Z,97828.31
2023-10-25T15:50:05.524Z,97824.03
2023-10-25T15:52:32.280Z,97821.16
2023-10-25T15:54:59.849Z,97822.19
2023-10-25T15:57:26.629Z,97815.81
2023-10-25T15:59:53.443Z,97813.16
2023-10-25T16:02:20.528Z,97823.81
2023-10-25T16:04:47.773Z,97825.47
2023-10-25T16:07:14.827Z,97820.16
2023-10-25T16:09:41.730Z,97812.34
2023-10-25T16:12:08.957Z,97812.34
2023-10-25T16:14:35.691Z,97799.03
2023-10-25T16:17:02.622Z,97798.19
2023-10-25T16:19:31.268Z,97792.06
2023-10-25T16:21:58.724Z,97785.06
2023-10-25T16:24:25.475Z,97772.59
2023-10-25T16:26:52.302Z,97771.75
2023-10-25T16:29:19.122Z,97778.94
2023-10-25T16:31:46.308Z,97786.91
2023-10-25T16:34:19.480Z,97778.09
2023-10-25T16:37:00.986Z,97778.31
2023-10-25T16:39:48.553Z,97774.41
2023-10-25T16:46:34.719Z,97763.31
2023-10-25T16:49:03.621Z,97767.03
2023-10-25T16:51:34.992Z,97752.69
2023-10-25T16:54:02.228Z,97775.63
2023-10-25T16:56:34.442Z,97780.16
2023-10-25T16:59:01.378Z,97775.00
2023-10-25T17:01:28.273Z,97783.84
2023-10-25T17:04:05.607Z,97783.00
2023-10-25T17:06:32.855Z,97784.66
2023-10-25T17:09:12.749Z,97788.78
2023-10-25T17:11:39.973Z,97795.09
2023-10-25T17:14:09.245Z,97806.59
2023-10-25T17:16:39.077Z,97809.06
2023-10-25T17:19:05.904Z,97804.13
2023-10-25T17:21:34.016Z,97798.81
2023-10-25T17:24:06.027Z,97805.56
2023-10-25T17:26:32.842Z,97793.66
2023-10-25T17:28:59.796Z,97794.09
2023-10-25T17:31:34.184Z,97786.91
2023-10-25T17:34:02.919Z,97790.00
2023-10-25T17:36:34.671Z,97789.78
2023-10-25T17:42:59.766Z,97787.31
2023-10-25T17:49:03.388Z,97774.41
2023-10-25T17:51:30.300Z,97766.19
2023-10-25T17:54:08.790Z,97754.50
2023-10-25T17:56:51.426Z,97759.03
2023-10-25T18:02:58.411Z,97741.41
2023-10-25T18:05:25.364Z,97749.41
2023-10-25T18:07:52.190Z,97746.75
2023-10-25T18:10:22.171Z,97742.22
2023-10-25T18:12:49.758Z,97740.59
2023-10-25T18:15:16.918Z,97736.72
2023-10-25T18:17:43.964Z,97738.94
2023-10-25T18:20:12.818Z,97733.41
2023-10-25T18:22:39.857Z,97735.25
2023-10-25T18:25:07.170Z,97732.38
2023-10-25T18:27:34.008Z,97727.69
2023-10-25T18:30:20.252Z,97731.56
2023-10-25T18:32:47.648Z,97736.72
2023-10-25T18:35:14.713Z,97738.56
2023-10-25T18:37:41.534Z,97728.91
2023-10-25T18:40:09.293Z,97734.84
2023-10-25T18:42:36.208Z,97741.63
2023-10-25T18:45:04.786Z,97733.00
2023-10-25T18:47:33.524Z,97732.19
2023-10-25T18:50:00.702Z,97740.00
2023-10-25T18:52:27.572Z,97734.84
2023-10-25T18:54:57.456Z,97747.75
2023-10-25T18:57:24.554Z,97737.94
2023-10-25T18:59:58.195Z,97741.81
2023-10-25T19:02:26.490Z,97750.25
2023-10-25T19:06:30.970Z,97742.25
2023-10-25T19:08:24.838Z,97747.56
2023-10-25T19:10:35.395Z,97742.44
2023-10-25T19:13:04.102Z,97755.38
2023-10-25T19:15:31.723Z,97744.50
2023-10-25T19:17:58.885Z,97754.34
2023-10-25T19:20:27.534Z,97756.19
2023-10-25T19:22:54.526Z,97757.00
2023-10-25T19:25:21.299Z,97766.44
2023-10-25T19:27:48.609Z,97777.28
2023-10-25T19:30:16.310Z,97766.63
2023-10-25T19:32:43.917Z,97780.19
2023-10-25T19:35:10.871Z,97792.47
2023-10-25T19:37:37.744Z,97806.00
2023-10-25T19:40:04.874Z,97805.16
2023-10-25T19:42:31.778Z,97800.88
2023-10-25T19:44:58.619Z,97805.78
2023-10-25T19:47:25.702Z,97796.97
2023-10-25T19:49:52.708Z,97822.41
2023-10-25T19:52:19.540Z,97829.78
2023-10-25T19:54:46.444Z,97829.16
2023-10-25T19:57:13.290Z,97830.81
2023-10-25T19:59:40.163Z,97829.59
2023-10-25T20:02:06.998Z,97842.28
2023-10-25T20:04:34.011Z,97831.63
2023-10-25T20:07:00.799Z,97850.47
2023-10-25T20:09:27.688Z,97864.22
2023-10-25T20:11:54.601Z,97852.94
2023-10-25T20:14:21.392Z,97859.09
2023-10-25T20:16:48.230Z,97863.78
2023-10-25T20:19:14.976Z,97878.56
2023-10-25T20:21:42.848Z,97890.25
2023-10-25T20:24:09.888Z,97900.09
2023-10-25T20:26:37.678Z,97898.00
2023-10-25T20:29:05.352Z,97896.34
2023-10-25T20:31:32.276Z,97902.94
2023-10-25T20:33:59.052Z,97901.31
2023-10-25T20:36:25.872Z,97895.97
2023-10-25T20:38:52.701Z,97914.41
2023-10-25T20:41:19.538Z,97916.47
2023-10-25T20:43:46.352Z,97908.28
2023-10-25T20:46:13.167Z,97919.97
2023-10-25T20:48:41.591Z,97920.78
2023-10-25T20:51:08.469Z,97918.13
2023-10-25T20:53:35.719Z,97926.94
2023-10-25T20:56:02.640Z,97923.44
2023-10-25T20:58:29.415Z,97927.16
2023-10-25T21:00:56.184Z,97942.28
2023-10-25T21:03:23.475Z,97947.44
2023-10-25T21:05:55.121Z,97952.13
2023-10-25T21:08:22.001Z,97954.59
2023-10-25T21:10:48.856Z,97962.38
2023-10-25T21:13:15.707Z,97954.78
2023-10-25T21:15:42.425Z,97961.56
2023-10-25T21:18:11.619Z,97959.94
2023-10-25T21:20:45.555Z,97967.94
2023-10-25T21:23:12.370Z,97979.22
2023-10-25T21:25:39.190Z,97977.56
2023-10-25T21:28:06.013Z,97982.88
2023-10-25T21:30:32.988Z,97978.13
2023-10-25T21:32:59.937Z,98001.75
2023-10-25T21:35:26.774Z,97985.13
2023-10-25T21:37:53.502Z,97997.25
2023-10-25T21:40:20.417Z,97989.44
2023-10-25T21:42:47.240Z,97996.41
2023-10-25T21:45:14.135Z,97998.88
2023-10-25T21:47:41.111Z,98005.03
2023-10-25T21:50:08.238Z,98006.88
2023-10-25T21:52:35.024Z,98004.19
2023-10-25T21:55:01.788Z,97994.75
2023-10-25T21:57:28.695Z,98000.72
2023-10-25T21:59:55.666Z,98000.09
2023-10-25T22:02:27.166Z,98002.94
2023-10-25T22:04:55.546Z,98012.59
2023-10-25T22:07:22.645Z,98006.22
2023-10-25T22:09:49.881Z,98011.56
2023-10-25T22:12:17.086Z,98009.13
2023-10-25T22:14:44.361Z,98007.28
2023-10-25T22:17:11.360Z,98002.13
2023-10-25T22:19:38.199Z,98010.94
2023-10-25T22:22:05.195Z,98014.44
2023-10-25T22:24:32.001Z,98023.06
2023-10-25T22:26:58.772Z,98005.41
2023-10-25T22:29:25.505Z,98015.44
2023-10-25T22:31:52.498Z,98011.38
2023-10-25T22:34:20.535Z,98021.84
2023-10-25T22:36:50.771Z,98006.44
2023-10-25T22:39:18.747Z,98020.59
2023-10-25T22:41:46.546Z,98019.38
2023-10-25T22:44:14.449Z,98017.75
2023-10-25T22:46:41.241Z,98012.59
2023-10-25T22:49:08.325Z,98019.38
2023-10-25T22:51:35.250Z,98012.41
2023-10-25T22:54:02.192Z,98008.72
2023-10-25T22:56:29.138Z,98013.00
2023-10-25T22:58:56.598Z,98019.78
2023-10-25T23:01:23.575Z,98019.19
2023-10-25T23:03:50.451Z,98025.13
2023-10-25T23:06:17.209Z,98026.34
2023-10-25T23:08:44.138Z,98034.78
2023-10-25T23:11:11.003Z,98026.16
2023-10-25T23:13:37.910Z,98020.63
2023-10-25T23:16:04.920Z,98023.31
2023-10-25T23:18:31.785Z,98029.84
2023-10-25T23:20:58.658Z,98035.19
2023-10-25T23:23:25.548Z,98038.66
2023-10-25T23:25:52.519Z,98028.81
2023-10-25T23:28:19.358Z,98027.78
2023-10-25T23:30:46.116Z,98033.13
2023-10-25T23:33:12.991Z,98032.13
2023-10-25T23:35:39.930Z,98039.91
2023-10-25T23:38:06.817Z,98035.19
2023-10-25T23:40:33.572Z,98043.19
2023-10-25T23:43:00.542Z,98042.97
2023-10-25T23:45:27.538Z,98038.44
2023-10-25T23:47:54.413Z,98033.72
2023-10-25T23:50:21.300Z,98055.28
2023-10-25T23:52:48.214Z,98057.31
2023-10-25T23:55:15.055Z,98051.59
2023-10-25T23:57:42.096Z,98042.16
